Airfield :
LOGIN :

Register | Disclaimer

   EN    FR    IT 

 










Legend :    VFR   Marginal VFR   IFR   Intensive IFR   Very Intensive IFR
Visi :
Ceiling :
>= 8 km
>= 3000ft
5 to 8 km
1000 to 3000 ft
1500m to 5 km
500 to 1000 ft
800 to 1500m
200 to 500 ft
< 800m
< 200 ft
Symbols :   Thunderstorms  Fog  Heavy snow  Heavy precipitations  Wind > 20 kt
SIGMETs :     Misc.  Thunderstorms  Icing  Turbulence  Mountain Waves  Volcanic Ashes






- Airport Elevation : 287 ft


LFRL - Lanveoc Poulmic

CURRENT METAR :
  • 152300Z AUTO 22010KT 9999 BKN022/// OVC029/// ///CB 09/07 Q1000

EXPIRED METARs :
  • 152230Z AUTO 21013KT 9999 SCT026/// BKN031/// BKN038/// ///CB 10/06 Q1000
  • 152200Z AUTO 21017KT 9999 SCT021/// BKN027/// BKN035/// ///CB 10/07 Q1000
  • 152130Z AUTO 21014KT 9999 BKN027/// BKN032/// BKN038/// ///CB 10/06 Q1001
  • 152100Z AUTO 21013KT 9999 BKN029 BKN040 BKN054 10/06 Q1001
  • 152030Z AUTO 21015KT 9999 FEW027 SCT034 BKN130 10/06 Q1001

Expired Forecast.



MET'MAP, your aeronautical weather chart ! - Copyright ORBIFLY December 2007 - Disclaimer

ORBIFLY MET'MAP TEAM :

Programming & Development : Alexandra Zaïnal
Concept & original design : Baudouin d'Aumeries
Assistance for programming : Marc-Olivier Méhu
Technical & hardware support : Manuel Goepfert

Contact : metmap@orbifly.com




SOURCES & CREDITS :

   NOAA